sensor_id;sensor_type;location;lat;lon;timestamp;P1;durP1;ratioP1;P2;durP2;ratioP2
1446;SDS011;717;51.522;7.266;2023-08-30T00:02:02;8.05;;;6.80;;
1446;SDS011;717;51.522;7.266;2023-08-30T00:04:34;7.25;;;6.55;;
1446;SDS011;717;51.522;7.266;2023-08-30T00:07:04;7.68;;;6.95;;
1446;SDS011;717;51.522;7.266;2023-08-30T00:09:34;9.30;;;7.05;;
1446;SDS011;717;51.522;7.266;2023-08-30T00:12:07;6.78;;;6.13;;
1446;SDS011;717;51.522;7.266;2023-08-30T00:14:37;7.40;;;6.28;;
1446;SDS011;717;51.522;7.266;2023-08-30T00:17:07;8.43;;;5.93;;
1446;SDS011;717;51.522;7.266;2023-08-30T00:19:38;7.13;;;6.43;;
1446;SDS011;717;51.522;7.266;2023-08-30T00:22:08;7.78;;;6.78;;
1446;SDS011;717;51.522;7.266;2023-08-30T00:24:38;7.47;;;6.75;;
1446;SDS011;717;51.522;7.266;2023-08-30T00:27:11;7.28;;;6.55;;
1446;SDS011;717;51.522;7.266;2023-08-30T00:29:41;7.47;;;6.63;;
1446;SDS011;717;51.522;7.266;2023-08-30T00:32:11;6.85;;;6.15;;
1446;SDS011;717;51.522;7.266;2023-08-30T00:34:41;6.32;;;5.82;;
1446;SDS011;717;51.522;7.266;2023-08-30T00:37:11;5.93;;;5.47;;
1446;SDS011;717;51.522;7.266;2023-08-30T00:39:41;7.75;;;6.20;;
1446;SDS011;717;51.522;7.266;2023-08-30T00:42:14;6.55;;;6.03;;
1446;SDS011;717;51.522;7.266;2023-08-30T00:44:44;8.05;;;6.10;;
1446;SDS011;717;51.522;7.266;2023-08-30T00:47:14;7.20;;;6.05;;
1446;SDS011;717;51.522;7.266;2023-08-30T00:49:44;7.05;;;6.35;;
1446;SDS011;717;51.522;7.266;2023-08-30T00:52:14;6.90;;;6.20;;
1446;SDS011;717;51.522;7.266;2023-08-30T00:54:44;6.93;;;6.25;;
1446;SDS011;717;51.522;7.266;2023-08-30T00:57:17;7.40;;;6.30;;
1446;SDS011;717;51.522;7.266;2023-08-30T00:59:47;7.32;;;6.63;;
1446;SDS011;717;51.522;7.266;2023-08-30T01:02:20;7.45;;;6.70;;
1446;SDS011;717;51.522;7.266;2023-08-30T01:04:52;7.68;;;6.03;;
1446;SDS011;717;51.522;7.266;2023-08-30T01:07:23;7.25;;;6.07;;
1446;SDS011;717;51.522;7.266;2023-08-30T01:09:54;7.45;;;6.65;;
1446;SDS011;717;51.522;7.266;2023-08-30T01:12:29;6.93;;;6.22;;
1446;SDS011;717;51.522;7.266;2023-08-30T01:15:06;6.72;;;6.13;;
1446;SDS011;717;51.522;7.266;2023-08-30T01:17:39;6.75;;;6.15;;
1446;SDS011;717;51.522;7.266;2023-08-30T01:20:11;7.35;;;6.65;;
1446;SDS011;717;51.522;7.266;2023-08-30T01:22:47;7.78;;;7.07;;
1446;SDS011;717;51.522;7.266;2023-08-30T01:25:31;8.02;;;7.00;;
1446;SDS011;717;51.522;7.266;2023-08-30T01:28:09;6.78;;;6.18;;
1446;SDS011;717;51.522;7.266;2023-08-30T01:30:41;7.70;;;6.90;;
1446;SDS011;717;51.522;7.266;2023-08-30T01:33:13;7.65;;;6.95;;
1446;SDS011;717;51.522;7.266;2023-08-30T01:35:45;8.77;;;7.43;;
1446;SDS011;717;51.522;7.266;2023-08-30T01:38:16;8.50;;;7.40;;
1446;SDS011;717;51.522;7.266;2023-08-30T01:40:46;10.68;;;7.60;;
1446;SDS011;717;51.522;7.266;2023-08-30T01:43:20;8.57;;;7.78;;
1446;SDS011;717;51.522;7.266;2023-08-30T01:45:51;8.77;;;7.88;;
1446;SDS011;717;51.522;7.266;2023-08-30T01:48:22;9.48;;;8.50;;
1446;SDS011;717;51.522;7.266;2023-08-30T01:50:54;9.10;;;8.20;;
1446;SDS011;717;51.522;7.266;2023-08-30T01:53:25;9.30;;;8.32;;
1446;SDS011;717;51.522;7.266;2023-08-30T01:55:57;8.52;;;7.68;;
1446;SDS011;717;51.522;7.266;2023-08-30T01:58:29;9.48;;;8.57;;
1446;SDS011;717;51.522;7.266;2023-08-30T02:01:00;9.05;;;8.13;;
1446;SDS011;717;51.522;7.266;2023-08-30T02:03:30;8.35;;;7.55;;
1446;SDS011;717;51.522;7.266;2023-08-30T02:06:02;9.38;;;8.38;;
1446;SDS011;717;51.522;7.266;2023-08-30T02:08:38;8.80;;;7.97;;
1446;SDS011;717;51.522;7.266;2023-08-30T02:11:14;9.20;;;8.30;;
1446;SDS011;717;51.522;7.266;2023-08-30T02:13:52;10.05;;;9.02;;
1446;SDS011;717;51.522;7.266;2023-08-30T02:16:23;9.60;;;8.70;;
1446;SDS011;717;51.522;7.266;2023-08-30T02:18:55;10.13;;;9.13;;
1446;SDS011;717;51.522;7.266;2023-08-30T02:21:25;9.50;;;8.45;;
1446;SDS011;717;51.522;7.266;2023-08-30T02:23:57;10.00;;;8.45;;
1446;SDS011;717;51.522;7.266;2023-08-30T02:26:29;10.05;;;9.15;;
1446;SDS011;717;51.522;7.266;2023-08-30T02:29:02;8.93;;;8.02;;
1446;SDS011;717;51.522;7.266;2023-08-30T02:31:32;10.27;;;9.23;;
1446;SDS011;717;51.522;7.266;2023-08-30T02:34:02;10.25;;;8.57;;
1446;SDS011;717;51.522;7.266;2023-08-30T02:36:33;8.77;;;7.97;;
1446;SDS011;717;51.522;7.266;2023-08-30T02:39:03;9.82;;;8.90;;
1446;SDS011;717;51.522;7.266;2023-08-30T02:41:33;9.27;;;8.32;;
1446;SDS011;717;51.522;7.266;2023-08-30T02:44:07;9.85;;;8.90;;
1446;SDS011;717;51.522;7.266;2023-08-30T02:46:37;9.68;;;8.75;;
1446;SDS011;717;51.522;7.266;2023-08-30T02:49:08;12.95;;;9.73;;
1446;SDS011;717;51.522;7.266;2023-08-30T02:51:38;11.05;;;9.95;;
1446;SDS011;717;51.522;7.266;2023-08-30T02:54:08;14.20;;;11.77;;
1446;SDS011;717;51.522;7.266;2023-08-30T02:56:39;14.15;;;12.63;;
1446;SDS011;717;51.522;7.266;2023-08-30T02:59:13;13.98;;;12.57;;
1446;SDS011;717;51.522;7.266;2023-08-30T03:01:44;13.63;;;12.32;;
1446;SDS011;717;51.522;7.266;2023-08-30T03:04:16;13.98;;;12.55;;
1446;SDS011;717;51.522;7.266;2023-08-30T03:06:47;15.27;;;13.77;;
1446;SDS011;717;51.522;7.266;2023-08-30T03:09:17;15.15;;;13.70;;
1446;SDS011;717;51.522;7.266;2023-08-30T03:11:47;15.18;;;13.68;;
1446;SDS011;717;51.522;7.266;2023-08-30T03:14:19;15.55;;;13.95;;
1446;SDS011;717;51.522;7.266;2023-08-30T03:16:49;14.88;;;13.23;;
1446;SDS011;717;51.522;7.266;2023-08-30T03:19:19;14.77;;;13.18;;
1446;SDS011;717;51.522;7.266;2023-08-30T03:21:49;15.52;;;13.82;;
1446;SDS011;717;51.522;7.266;2023-08-30T03:24:19;16.75;;;13.63;;
1446;SDS011;717;51.522;7.266;2023-08-30T03:26:49;15.88;;;13.80;;
1446;SDS011;717;51.522;7.266;2023-08-30T03:29:22;13.75;;;12.35;;
1446;SDS011;717;51.522;7.266;2023-08-30T03:31:52;14.68;;;13.13;;
1446;SDS011;717;51.522;7.266;2023-08-30T03:34:22;14.50;;;12.70;;
1446;SDS011;717;51.522;7.266;2023-08-30T03:36:52;13.95;;;12.55;;
1446;SDS011;717;51.522;7.266;2023-08-30T03:39:23;14.50;;;13.05;;
1446;SDS011;717;51.522;7.266;2023-08-30T03:41:53;13.73;;;12.43;;
1446;SDS011;717;51.522;7.266;2023-08-30T03:44:26;14.65;;;13.18;;
1446;SDS011;717;51.522;7.266;2023-08-30T03:46:56;13.20;;;11.82;;
1446;SDS011;717;51.522;7.266;2023-08-30T03:49:26;13.80;;;12.43;;
1446;SDS011;717;51.522;7.266;2023-08-30T03:51:57;13.88;;;12.45;;
1446;SDS011;717;51.522;7.266;2023-08-30T03:54:27;15.15;;;13.00;;
1446;SDS011;717;51.522;7.266;2023-08-30T03:56:57;14.50;;;13.00;;
1446;SDS011;717;51.522;7.266;2023-08-30T03:59:30;15.48;;;13.48;;
1446;SDS011;717;51.522;7.266;2023-08-30T04:02:00;13.77;;;12.48;;
1446;SDS011;717;51.522;7.266;2023-08-30T04:04:30;14.75;;;13.30;;
1446;SDS011;717;51.522;7.266;2023-08-30T04:07:00;14.27;;;12.80;;
1446;SDS011;717;51.522;7.266;2023-08-30T04:09:32;14.10;;;12.77;;
1446;SDS011;717;51.522;7.266;2023-08-30T04:12:03;14.27;;;12.82;;
1446;SDS011;717;51.522;7.266;2023-08-30T04:14:36;14.15;;;12.68;;
1446;SDS011;717;51.522;7.266;2023-08-30T04:17:06;13.85;;;11.85;;
1446;SDS011;717;51.522;7.266;2023-08-30T04:19:36;15.30;;;12.48;;
1446;SDS011;717;51.522;7.266;2023-08-30T04:22:07;14.70;;;12.65;;
1446;SDS011;717;51.522;7.266;2023-08-30T04:24:37;15.02;;;12.48;;
1446;SDS011;717;51.522;7.266;2023-08-30T04:27:08;14.65;;;13.18;;
1446;SDS011;717;51.522;7.266;2023-08-30T04:29:40;14.10;;;12.77;;
1446;SDS011;717;51.522;7.266;2023-08-30T04:32:11;14.80;;;12.50;;
1446;SDS011;717;51.522;7.266;2023-08-30T04:34:41;13.25;;;11.95;;
1446;SDS011;717;51.522;7.266;2023-08-30T04:37:11;15.15;;;13.30;;
1446;SDS011;717;51.522;7.266;2023-08-30T04:39:42;14.95;;;13.35;;
1446;SDS011;717;51.522;7.266;2023-08-30T04:42:12;15.00;;;13.30;;
1446;SDS011;717;51.522;7.266;2023-08-30T04:44:44;16.08;;;14.18;;
1446;SDS011;717;51.522;7.266;2023-08-30T04:47:14;15.63;;;14.05;;
1446;SDS011;717;51.522;7.266;2023-08-30T04:49:49;15.45;;;13.75;;
1446;SDS011;717;51.522;7.266;2023-08-30T04:52:19;15.70;;;13.77;;
1446;SDS011;717;51.522;7.266;2023-08-30T04:54:52;16.30;;;14.63;;
1446;SDS011;717;51.522;7.266;2023-08-30T04:57:24;16.77;;;14.52;;
1446;SDS011;717;51.522;7.266;2023-08-30T04:59:57;17.30;;;15.48;;
1446;SDS011;717;51.522;7.266;2023-08-30T05:02:31;16.33;;;14.63;;
1446;SDS011;717;51.522;7.266;2023-08-30T05:05:05;16.10;;;14.27;;
1446;SDS011;717;51.522;7.266;2023-08-30T05:07:36;16.85;;;14.73;;
1446;SDS011;717;51.522;7.266;2023-08-30T05:10:07;17.38;;;15.48;;
1446;SDS011;717;51.522;7.266;2023-08-30T05:12:38;17.38;;;15.63;;
1446;SDS011;717;51.522;7.266;2023-08-30T05:15:13;17.33;;;15.38;;
1446;SDS011;717;51.522;7.266;2023-08-30T05:17:43;17.10;;;15.30;;
1446;SDS011;717;51.522;7.266;2023-08-30T05:20:14;17.33;;;15.55;;
1446;SDS011;717;51.522;7.266;2023-08-30T05:22:44;16.65;;;14.98;;
1446;SDS011;717;51.522;7.266;2023-08-30T05:25:14;18.25;;;16.05;;
1446;SDS011;717;51.522;7.266;2023-08-30T05:27:44;18.83;;;16.83;;
1446;SDS011;717;51.522;7.266;2023-08-30T05:30:17;18.15;;;16.17;;
1446;SDS011;717;51.522;7.266;2023-08-30T05:32:50;19.02;;;16.90;;
1446;SDS011;717;51.522;7.266;2023-08-30T05:35:40;19.48;;;16.83;;
1446;SDS011;717;51.522;7.266;2023-08-30T05:38:48;19.83;;;16.60;;
1446;SDS011;717;51.522;7.266;2023-08-30T05:41:31;19.42;;;17.23;;
1446;SDS011;717;51.522;7.266;2023-08-30T05:44:01;21.70;;;17.98;;
1446;SDS011;717;51.522;7.266;2023-08-30T05:46:34;21.60;;;17.88;;
1446;SDS011;717;51.522;7.266;2023-08-30T05:49:04;23.30;;;18.75;;
1446;SDS011;717;51.522;7.266;2023-08-30T05:51:34;21.92;;;18.25;;
1446;SDS011;717;51.522;7.266;2023-08-30T05:54:04;24.38;;;18.02;;
1446;SDS011;717;51.522;7.266;2023-08-30T05:56:34;21.35;;;17.77;;
1446;SDS011;717;51.522;7.266;2023-08-30T05:59:06;22.80;;;20.10;;
1446;SDS011;717;51.522;7.266;2023-08-30T06:01:38;20.95;;;18.38;;
1446;SDS011;717;51.522;7.266;2023-08-30T06:04:08;21.98;;;18.67;;
1446;SDS011;717;51.522;7.266;2023-08-30T06:06:43;21.52;;;18.30;;
1446;SDS011;717;51.522;7.266;2023-08-30T06:09:13;20.95;;;18.67;;
1446;SDS011;717;51.522;7.266;2023-08-30T06:11:43;23.10;;;20.55;;
1446;SDS011;717;51.522;7.266;2023-08-30T06:14:13;23.30;;;19.45;;
1446;SDS011;717;51.522;7.266;2023-08-30T06:16:46;22.85;;;19.83;;
1446;SDS011;717;51.522;7.266;2023-08-30T06:19:16;21.98;;;19.10;;
1446;SDS011;717;51.522;7.266;2023-08-30T06:21:46;22.45;;;19.13;;
1446;SDS011;717;51.522;7.266;2023-08-30T06:24:16;24.25;;;19.65;;
1446;SDS011;717;51.522;7.266;2023-08-30T06:26:46;23.98;;;21.02;;
1446;SDS011;717;51.522;7.266;2023-08-30T06:29:19;25.73;;;20.77;;
1446;SDS011;717;51.522;7.266;2023-08-30T06:31:52;24.15;;;20.33;;
1446;SDS011;717;51.522;7.266;2023-08-30T06:34:22;24.23;;;21.13;;
1446;SDS011;717;51.522;7.266;2023-08-30T06:36:52;24.70;;;20.63;;
1446;SDS011;717;51.522;7.266;2023-08-30T06:39:22;25.70;;;21.42;;
1446;SDS011;717;51.522;7.266;2023-08-30T06:41:52;26.10;;;21.63;;
1446;SDS011;717;51.522;7.266;2023-08-30T06:44:26;24.20;;;21.38;;
1446;SDS011;717;51.522;7.266;2023-08-30T06:46:59;25.98;;;23.15;;
1446;SDS011;717;51.522;7.266;2023-08-30T06:49:29;26.25;;;22.85;;
1446;SDS011;717;51.522;7.266;2023-08-30T06:52:00;25.63;;;22.27;;
1446;SDS011;717;51.522;7.266;2023-08-30T06:54:33;26.40;;;22.85;;
1446;SDS011;717;51.522;7.266;2023-08-30T06:57:04;24.60;;;20.50;;
1446;SDS011;717;51.522;7.266;2023-08-30T06:59:35;27.35;;;23.00;;
1446;SDS011;717;51.522;7.266;2023-08-30T07:02:08;27.75;;;24.15;;
1446;SDS011;717;51.522;7.266;2023-08-30T07:04:39;27.13;;;22.85;;
1446;SDS011;717;51.522;7.266;2023-08-30T07:07:09;26.67;;;22.65;;
1446;SDS011;717;51.522;7.266;2023-08-30T07:09:41;27.92;;;23.15;;
1446;SDS011;717;51.522;7.266;2023-08-30T07:12:11;24.60;;;22.00;;
1446;SDS011;717;51.522;7.266;2023-08-30T07:14:41;25.13;;;21.25;;
1446;SDS011;717;51.522;7.266;2023-08-30T07:17:14;25.73;;;21.95;;
1446;SDS011;717;51.522;7.266;2023-08-30T07:19:44;24.30;;;21.70;;
1446;SDS011;717;51.522;7.266;2023-08-30T07:22:14;26.23;;;22.30;;
1446;SDS011;717;51.522;7.266;2023-08-30T07:24:44;24.20;;;21.35;;
1446;SDS011;717;51.522;7.266;2023-08-30T07:27:15;36.50;;;21.52;;
1446;SDS011;717;51.522;7.266;2023-08-30T07:29:45;20.65;;;18.55;;
1446;SDS011;717;51.522;7.266;2023-08-30T07:32:17;19.33;;;17.33;;
1446;SDS011;717;51.522;7.266;2023-08-30T07:34:47;17.88;;;15.98;;
1446;SDS011;717;51.522;7.266;2023-08-30T07:37:18;17.55;;;15.70;;
1446;SDS011;717;51.522;7.266;2023-08-30T07:39:50;19.17;;;15.73;;
1446;SDS011;717;51.522;7.266;2023-08-30T07:42:21;16.38;;;14.68;;
1446;SDS011;717;51.522;7.266;2023-08-30T07:44:51;18.52;;;13.70;;
1446;SDS011;717;51.522;7.266;2023-08-30T07:47:24;15.50;;;14.00;;
1446;SDS011;717;51.522;7.266;2023-08-30T07:49:54;13.65;;;12.25;;
1446;SDS011;717;51.522;7.266;2023-08-30T07:52:24;12.82;;;11.52;;
1446;SDS011;717;51.522;7.266;2023-08-30T07:55:11;12.65;;;10.98;;
1446;SDS011;717;51.522;7.266;2023-08-30T07:57:41;13.68;;;12.30;;
1446;SDS011;717;51.522;7.266;2023-08-30T08:00:11;10.82;;;9.80;;
1446;SDS011;717;51.522;7.266;2023-08-30T08:02:46;12.60;;;10.35;;
1446;SDS011;717;51.522;7.266;2023-08-30T08:05:16;11.02;;;9.82;;
1446;SDS011;717;51.522;7.266;2023-08-30T08:07:49;10.70;;;9.32;;
1446;SDS011;717;51.522;7.266;2023-08-30T08:10:21;12.70;;;9.40;;
1446;SDS011;717;51.522;7.266;2023-08-30T08:12:51;9.38;;;8.45;;
1446;SDS011;717;51.522;7.266;2023-08-30T08:15:23;9.45;;;8.07;;
1446;SDS011;717;51.522;7.266;2023-08-30T08:17:56;9.38;;;8.35;;
1446;SDS011;717;51.522;7.266;2023-08-30T08:20:26;8.40;;;7.13;;
1446;SDS011;717;51.522;7.266;2023-08-30T08:22:57;7.40;;;6.65;;
1446;SDS011;717;51.522;7.266;2023-08-30T08:25:28;6.38;;;5.78;;
1446;SDS011;717;51.522;7.266;2023-08-30T08:27:58;8.20;;;6.03;;
1446;SDS011;717;51.522;7.266;2023-08-30T08:30:28;7.05;;;6.38;;
1446;SDS011;717;51.522;7.266;2023-08-30T08:33:00;7.18;;;6.47;;
1446;SDS011;717;51.522;7.266;2023-08-30T08:35:30;6.22;;;5.55;;
1446;SDS011;717;51.522;7.266;2023-08-30T08:38:00;7.15;;;5.05;;
1446;SDS011;717;51.522;7.266;2023-08-30T08:40:36;7.30;;;5.90;;
1446;SDS011;717;51.522;7.266;2023-08-30T08:43:09;6.45;;;5.50;;
1446;SDS011;717;51.522;7.266;2023-08-30T08:45:40;6.60;;;4.30;;
1446;SDS011;717;51.522;7.266;2023-08-30T08:48:13;5.63;;;4.80;;
1446;SDS011;717;51.522;7.266;2023-08-30T08:50:44;6.28;;;4.63;;
1446;SDS011;717;51.522;7.266;2023-08-30T08:53:15;6.70;;;4.60;;
1446;SDS011;717;51.522;7.266;2023-08-30T08:55:45;5.68;;;3.90;;
1446;SDS011;717;51.522;7.266;2023-08-30T08:58:16;4.85;;;3.58;;
1446;SDS011;717;51.522;7.266;2023-08-30T09:00:46;4.63;;;3.70;;
1446;SDS011;717;51.522;7.266;2023-08-30T09:03:19;4.97;;;3.30;;
1446;SDS011;717;51.522;7.266;2023-08-30T09:05:51;4.35;;;3.70;;
1446;SDS011;717;51.522;7.266;2023-08-30T09:08:22;3.25;;;2.95;;
1446;SDS011;717;51.522;7.266;2023-08-30T09:10:52;5.07;;;3.50;;
1446;SDS011;717;51.522;7.266;2023-08-30T09:13:22;5.03;;;3.50;;
1446;SDS011;717;51.522;7.266;2023-08-30T09:15:52;3.30;;;3.00;;
1446;SDS011;717;51.522;7.266;2023-08-30T09:18:25;4.10;;;3.20;;
1446;SDS011;717;51.522;7.266;2023-08-30T09:21:04;4.97;;;3.60;;
1446;SDS011;717;51.522;7.266;2023-08-30T09:23:35;4.35;;;3.58;;
1446;SDS011;717;51.522;7.266;2023-08-30T09:26:05;4.55;;;3.85;;
1446;SDS011;717;51.522;7.266;2023-08-30T09:28:41;5.22;;;3.78;;
1446;SDS011;717;51.522;7.266;2023-08-30T09:31:16;5.47;;;4.28;;
1446;SDS011;717;51.522;7.266;2023-08-30T09:33:51;4.28;;;3.63;;
1446;SDS011;717;51.522;7.266;2023-08-30T09:36:33;4.78;;;3.38;;
1446;SDS011;717;51.522;7.266;2023-08-30T09:39:03;4.13;;;3.25;;
1446;SDS011;717;51.522;7.266;2023-08-30T09:41:34;5.43;;;3.60;;
1446;SDS011;717;51.522;7.266;2023-08-30T09:44:07;4.60;;;3.35;;
1446;SDS011;717;51.522;7.266;2023-08-30T09:46:41;5.63;;;4.05;;
1446;SDS011;717;51.522;7.266;2023-08-30T09:49:21;5.65;;;4.22;;
1446;SDS011;717;51.522;7.266;2023-08-30T09:51:52;4.75;;;3.60;;
1446;SDS011;717;51.522;7.266;2023-08-30T09:54:24;4.95;;;3.78;;
1446;SDS011;717;51.522;7.266;2023-08-30T09:57:05;4.10;;;3.70;;
1446;SDS011;717;51.522;7.266;2023-08-30T09:59:36;3.78;;;3.38;;
1446;SDS011;717;51.522;7.266;2023-08-30T10:02:08;4.97;;;4.40;;
1446;SDS011;717;51.522;7.266;2023-08-30T10:04:42;4.53;;;3.88;;
1446;SDS011;717;51.522;7.266;2023-08-30T10:07:13;4.05;;;3.58;;
1446;SDS011;717;51.522;7.266;2023-08-30T10:09:44;4.32;;;3.70;;
1446;SDS011;717;51.522;7.266;2023-08-30T10:12:34;4.53;;;4.10;;
1446;SDS011;717;51.522;7.266;2023-08-30T10:15:06;6.55;;;3.83;;
1446;SDS011;717;51.522;7.266;2023-08-30T10:17:36;8.30;;;4.30;;
1446;SDS011;717;51.522;7.266;2023-08-30T10:20:13;4.25;;;3.80;;
1446;SDS011;717;51.522;7.266;2023-08-30T10:22:44;6.43;;;4.25;;
1446;SDS011;717;51.522;7.266;2023-08-30T10:25:17;4.32;;;3.83;;
1446;SDS011;717;51.522;7.266;2023-08-30T10:27:50;5.03;;;4.43;;
1446;SDS011;717;51.522;7.266;2023-08-30T10:30:22;4.18;;;3.78;;
1446;SDS011;717;51.522;7.266;2023-08-30T10:32:52;4.40;;;3.88;;
1446;SDS011;717;51.522;7.266;2023-08-30T10:35:25;4.15;;;3.70;;
1446;SDS011;717;51.522;7.266;2023-08-30T10:37:56;4.43;;;3.75;;
1446;SDS011;717;51.522;7.266;2023-08-30T10:40:28;4.95;;;3.90;;
1446;SDS011;717;51.522;7.266;2023-08-30T10:42:59;5.07;;;4.63;;
1446;SDS011;717;51.522;7.266;2023-08-30T10:45:30;4.88;;;4.45;;
1446;SDS011;717;51.522;7.266;2023-08-30T10:48:00;5.22;;;4.35;;
1446;SDS011;717;51.522;7.266;2023-08-30T10:50:33;5.13;;;3.97;;
1446;SDS011;717;51.522;7.266;2023-08-30T10:53:04;4.93;;;4.43;;
1446;SDS011;717;51.522;7.266;2023-08-30T10:58:41;5.22;;;4.72;;
1446;SDS011;717;51.522;7.266;2023-08-30T11:01:11;5.75;;;5.30;;
1446;SDS011;717;51.522;7.266;2023-08-30T11:03:42;6.25;;;5.65;;
1446;SDS011;717;51.522;7.266;2023-08-30T11:06:15;8.90;;;6.03;;
1446;SDS011;717;51.522;7.266;2023-08-30T11:08:46;6.47;;;5.82;;
1446;SDS011;717;51.522;7.266;2023-08-30T11:11:17;6.72;;;6.03;;
1446;SDS011;717;51.522;7.266;2023-08-30T11:13:48;6.68;;;5.88;;
1446;SDS011;717;51.522;7.266;2023-08-30T11:16:21;7.32;;;6.20;;
1446;SDS011;717;51.522;7.266;2023-08-30T11:18:51;7.60;;;6.40;;
1446;SDS011;717;51.522;7.266;2023-08-30T11:21:24;6.75;;;6.15;;
1446;SDS011;717;51.522;7.266;2023-08-30T11:23:54;6.63;;;6.03;;
1446;SDS011;717;51.522;7.266;2023-08-30T11:26:24;6.30;;;5.70;;
1446;SDS011;717;51.522;7.266;2023-08-30T11:28:54;7.03;;;6.32;;
1446;SDS011;717;51.522;7.266;2023-08-30T11:31:25;7.93;;;7.22;;
1446;SDS011;717;51.522;7.266;2023-08-30T11:33:56;8.15;;;7.35;;
1446;SDS011;717;51.522;7.266;2023-08-30T11:36:30;8.70;;;7.90;;
1446;SDS011;717;51.522;7.266;2023-08-30T11:39:01;7.90;;;7.10;;
1446;SDS011;717;51.522;7.266;2023-08-30T11:41:32;8.63;;;7.53;;
1446;SDS011;717;51.522;7.266;2023-08-30T11:44:03;8.77;;;7.88;;
1446;SDS011;717;51.522;7.266;2023-08-30T11:46:33;11.48;;;7.57;;
1446;SDS011;717;51.522;7.266;2023-08-30T11:49:03;9.20;;;8.27;;
1446;SDS011;717;51.522;7.266;2023-08-30T11:51:36;8.82;;;8.02;;
1446;SDS011;717;51.522;7.266;2023-08-30T11:54:07;9.48;;;8.48;;
1446;SDS011;717;51.522;7.266;2023-08-30T11:56:37;8.90;;;8.10;;
1446;SDS011;717;51.522;7.266;2023-08-30T11:59:17;8.75;;;7.90;;
1446;SDS011;717;51.522;7.266;2023-08-30T12:01:48;8.55;;;7.72;;
1446;SDS011;717;51.522;7.266;2023-08-30T12:04:18;6.82;;;6.13;;
1446;SDS011;717;51.522;7.266;2023-08-30T12:06:53;6.75;;;6.10;;
1446;SDS011;717;51.522;7.266;2023-08-30T12:09:23;5.90;;;5.28;;
1446;SDS011;717;51.522;7.266;2023-08-30T12:12:04;5.05;;;4.28;;
1446;SDS011;717;51.522;7.266;2023-08-30T12:14:35;4.32;;;3.92;;
1446;SDS011;717;51.522;7.266;2023-08-30T12:17:06;3.83;;;3.50;;
1446;SDS011;717;51.522;7.266;2023-08-30T12:19:39;3.40;;;3.10;;
1446;SDS011;717;51.522;7.266;2023-08-30T12:22:12;3.60;;;3.30;;
1446;SDS011;717;51.522;7.266;2023-08-30T12:24:42;4.25;;;3.67;;
1446;SDS011;717;51.522;7.266;2023-08-30T12:27:12;3.60;;;3.30;;
1446;SDS011;717;51.522;7.266;2023-08-30T12:29:43;3.85;;;3.30;;
1446;SDS011;717;51.522;7.266;2023-08-30T12:32:13;4.43;;;3.00;;
1446;SDS011;717;51.522;7.266;2023-08-30T12:34:43;3.45;;;3.15;;
1446;SDS011;717;51.522;7.266;2023-08-30T12:37:15;2.78;;;2.58;;
1446;SDS011;717;51.522;7.266;2023-08-30T12:39:45;2.85;;;2.65;;
1446;SDS011;717;51.522;7.266;2023-08-30T12:42:15;3.00;;;2.65;;
1446;SDS011;717;51.522;7.266;2023-08-30T12:44:45;2.90;;;2.65;;
1446;SDS011;717;51.522;7.266;2023-08-30T12:47:16;3.38;;;2.50;;
1446;SDS011;717;51.522;7.266;2023-08-30T12:49:46;2.75;;;2.55;;
1446;SDS011;717;51.522;7.266;2023-08-30T12:52:18;2.72;;;2.35;;
1446;SDS011;717;51.522;7.266;2023-08-30T12:54:48;2.85;;;2.65;;
1446;SDS011;717;51.522;7.266;2023-08-30T12:57:20;2.50;;;2.30;;
1446;SDS011;717;51.522;7.266;2023-08-30T12:59:50;3.85;;;2.50;;
1446;SDS011;717;51.522;7.266;2023-08-30T13:02:20;2.53;;;2.28;;
1446;SDS011;717;51.522;7.266;2023-08-30T13:04:51;3.42;;;2.78;;
1446;SDS011;717;51.522;7.266;2023-08-30T13:07:23;2.55;;;2.35;;
1446;SDS011;717;51.522;7.266;2023-08-30T13:09:53;2.85;;;2.58;;
1446;SDS011;717;51.522;7.266;2023-08-30T13:12:23;3.70;;;2.80;;
1446;SDS011;717;51.522;7.266;2023-08-30T13:14:53;3.17;;;2.70;;
1446;SDS011;717;51.522;7.266;2023-08-30T13:17:24;3.45;;;3.05;;
1446;SDS011;717;51.522;7.266;2023-08-30T13:19:54;4.00;;;2.90;;
1446;SDS011;717;51.522;7.266;2023-08-30T13:22:27;2.92;;;2.72;;
1446;SDS011;717;51.522;7.266;2023-08-30T13:24:57;3.22;;;3.00;;
1446;SDS011;717;51.522;7.266;2023-08-30T13:27:29;3.97;;;2.78;;
1446;SDS011;717;51.522;7.266;2023-08-30T13:29:59;3.70;;;2.90;;
1446;SDS011;717;51.522;7.266;2023-08-30T13:32:29;3.38;;;2.83;;
1446;SDS011;717;51.522;7.266;2023-08-30T13:35:00;3.30;;;3.00;;
1446;SDS011;717;51.522;7.266;2023-08-30T13:37:32;3.00;;;2.80;;
1446;SDS011;717;51.522;7.266;2023-08-30T13:40:03;4.55;;;2.75;;
1446;SDS011;717;51.522;7.266;2023-08-30T13:42:33;3.33;;;3.08;;
1446;SDS011;717;51.522;7.266;2023-08-30T13:45:04;4.15;;;3.25;;
1446;SDS011;717;51.522;7.266;2023-08-30T13:47:36;3.53;;;3.08;;
1446;SDS011;717;51.522;7.266;2023-08-30T13:50:06;3.28;;;2.92;;
1446;SDS011;717;51.522;7.266;2023-08-30T13:52:40;3.22;;;2.92;;
1446;SDS011;717;51.522;7.266;2023-08-30T13:55:10;3.53;;;3.15;;
1446;SDS011;717;51.522;7.266;2023-08-30T13:57:40;3.65;;;3.35;;
1446;SDS011;717;51.522;7.266;2023-08-30T14:00:11;4.55;;;3.22;;
1446;SDS011;717;51.522;7.266;2023-08-30T14:02:42;3.85;;;3.55;;
1446;SDS011;717;51.522;7.266;2023-08-30T14:05:12;3.60;;;3.30;;
1446;SDS011;717;51.522;7.266;2023-08-30T14:07:44;4.47;;;3.47;;
1446;SDS011;717;51.522;7.266;2023-08-30T14:10:15;3.50;;;3.22;;
1446;SDS011;717;51.522;7.266;2023-08-30T14:12:47;4.10;;;3.80;;
1446;SDS011;717;51.522;7.266;2023-08-30T14:15:17;3.33;;;3.03;;
1446;SDS011;717;51.522;7.266;2023-08-30T14:17:47;3.80;;;3.50;;
1446;SDS011;717;51.522;7.266;2023-08-30T14:20:17;3.72;;;3.42;;
1446;SDS011;717;51.522;7.266;2023-08-30T14:22:50;4.45;;;3.53;;
1446;SDS011;717;51.522;7.266;2023-08-30T14:25:20;3.22;;;2.92;;
1446;SDS011;717;51.522;7.266;2023-08-30T14:27:50;3.47;;;3.17;;
1446;SDS011;717;51.522;7.266;2023-08-30T14:30:21;3.13;;;2.83;;
1446;SDS011;717;51.522;7.266;2023-08-30T14:32:51;3.67;;;3.08;;
1446;SDS011;717;51.522;7.266;2023-08-30T14:35:22;3.50;;;3.20;;
1446;SDS011;717;51.522;7.266;2023-08-30T14:37:55;3.42;;;3.13;;
1446;SDS011;717;51.522;7.266;2023-08-30T14:40:25;3.28;;;2.97;;
1446;SDS011;717;51.522;7.266;2023-08-30T14:42:55;3.55;;;3.25;;
1446;SDS011;717;51.522;7.266;2023-08-30T14:45:25;3.22;;;2.92;;
1446;SDS011;717;51.522;7.266;2023-08-30T14:47:55;4.43;;;3.22;;
1446;SDS011;717;51.522;7.266;2023-08-30T14:50:25;3.80;;;3.38;;
1446;SDS011;717;51.522;7.266;2023-08-30T14:52:58;3.50;;;3.20;;
1446;SDS011;717;51.522;7.266;2023-08-30T14:55:28;3.47;;;3.17;;
1446;SDS011;717;51.522;7.266;2023-08-30T14:57:58;3.60;;;3.30;;
1446;SDS011;717;51.522;7.266;2023-08-30T15:00:28;3.67;;;3.25;;
1446;SDS011;717;51.522;7.266;2023-08-30T15:02:58;3.40;;;3.10;;
1446;SDS011;717;51.522;7.266;2023-08-30T15:05:29;4.00;;;3.70;;
1446;SDS011;717;51.522;7.266;2023-08-30T15:08:01;3.38;;;3.13;;
1446;SDS011;717;51.522;7.266;2023-08-30T15:10:32;4.65;;;3.40;;
1446;SDS011;717;51.522;7.266;2023-08-30T15:13:02;4.82;;;4.35;;
1446;SDS011;717;51.522;7.266;2023-08-30T15:15:33;4.65;;;4.00;;
1446;SDS011;717;51.522;7.266;2023-08-30T15:18:03;4.15;;;3.75;;
1446;SDS011;717;51.522;7.266;2023-08-30T15:20:35;4.18;;;3.65;;
1446;SDS011;717;51.522;7.266;2023-08-30T15:23:09;4.00;;;3.65;;
1446;SDS011;717;51.522;7.266;2023-08-30T15:25:44;4.13;;;3.72;;
1446;SDS011;717;51.522;7.266;2023-08-30T15:28:15;4.00;;;3.70;;
1446;SDS011;717;51.522;7.266;2023-08-30T15:30:46;4.25;;;3.55;;
1446;SDS011;717;51.522;7.266;2023-08-30T15:33:17;3.45;;;3.15;;
1446;SDS011;717;51.522;7.266;2023-08-30T15:35:47;3.88;;;3.55;;
1446;SDS011;717;51.522;7.266;2023-08-30T15:38:20;3.40;;;3.10;;
1446;SDS011;717;51.522;7.266;2023-08-30T15:40:50;5.40;;;3.33;;
1446;SDS011;717;51.522;7.266;2023-08-30T15:43:24;3.80;;;3.50;;
1446;SDS011;717;51.522;7.266;2023-08-30T15:45:54;4.05;;;3.65;;
1446;SDS011;717;51.522;7.266;2023-08-30T15:48:25;4.13;;;3.72;;
1446;SDS011;717;51.522;7.266;2023-08-30T15:50:55;4.53;;;3.97;;